createdAt,value
2019-01-18T18:00:43.489Z,17.47
2019-01-18T18:04:08.723Z,17.77
2019-01-18T18:07:11.519Z,24.37
2019-01-18T18:10:17.707Z,16.10
2019-01-18T18:13:17.844Z,14.13
2019-01-18T18:16:15.690Z,12.93
2019-01-18T18:19:22.620Z,13.43
2019-01-18T18:22:29.192Z,14.57
2019-01-18T18:25:33.699Z,15.10
2019-01-18T18:28:28.091Z,16.93
2019-01-18T18:31:04.052Z,17.83
2019-01-18T18:33:51.032Z,18.67
2019-01-18T18:36:47.667Z,21.47
2019-01-18T18:39:34.525Z,18.67
2019-01-18T18:42:21.042Z,15.70
2019-01-18T18:45:08.274Z,12.63
2019-01-18T18:47:55.080Z,16.57
2019-01-18T18:50:42.677Z,13.57
2019-01-18T18:53:55.887Z,13.17
2019-01-18T18:56:55.055Z,16.00
2019-01-18T18:59:28.105Z,15.73
2019-01-18T19:02:48.418Z,14.47
2019-01-18T19:05:33.011Z,14.17
2019-01-18T19:08:51.476Z,13.87
2019-01-18T19:11:56.319Z,14.63
2019-01-18T19:15:11.760Z,14.70
2019-01-18T19:18:14.498Z,13.57
2019-01-18T19:21:22.126Z,11.90
2019-01-18T19:24:16.113Z,13.97
2019-01-18T19:27:15.435Z,11.40
2019-01-18T19:29:57.795Z,12.67
2019-01-18T19:33:06.369Z,13.60
2019-01-18T19:36:21.751Z,11.67
2019-01-18T19:39:43.384Z,11.60
2019-01-18T19:42:47.728Z,13.70
2019-01-18T19:45:51.876Z,13.27
2019-01-18T19:48:46.227Z,12.03
2019-01-18T19:51:42.690Z,11.47
2019-01-18T19:54:55.974Z,11.57
2019-01-18T19:58:16.764Z,13.63
2019-01-18T20:01:05.766Z,14.43
2019-01-18T20:04:04.234Z,12.97
2019-01-18T20:06:55.623Z,12.93
2019-01-18T20:09:50.661Z,13.97
2019-01-18T20:12:42.643Z,14.40
2019-01-18T20:15:31.439Z,12.70
2019-01-18T20:18:28.653Z,14.10
2019-01-18T20:21:32.355Z,14.77
2019-01-18T20:24:29.222Z,14.27
2019-01-18T20:27:20.553Z,12.97
2019-01-18T20:29:54.272Z,14.63
2019-01-18T20:32:43.871Z,14.30
2019-01-18T20:35:36.675Z,13.77
2019-01-18T20:38:49.887Z,13.00
2019-01-18T20:42:06.150Z,12.30
2019-01-18T20:45:01.134Z,12.00
2019-01-18T20:48:23.723Z,12.40
2019-01-18T20:51:02.362Z,12.60
2019-01-18T20:54:20.133Z,13.80
2019-01-18T20:57:03.424Z,13.50
2019-01-18T21:00:07.265Z,15.73
2019-01-18T21:02:53.249Z,15.00
2019-01-18T21:06:19.187Z,15.87
2019-01-18T21:09:20.835Z,14.93
2019-01-18T21:11:57.098Z,13.90
2019-01-18T21:15:04.085Z,13.70
2019-01-18T21:17:52.386Z,13.23
2019-01-18T21:21:02.892Z,14.57
2019-01-18T21:24:06.454Z,14.00
2019-01-18T21:27:21.824Z,14.93
2019-01-18T21:30:18.193Z,15.27
2019-01-18T21:33:10.416Z,16.00
2019-01-18T21:35:58.508Z,14.17
2019-01-18T21:38:55.735Z,13.27
2019-01-18T21:41:41.846Z,12.97
2019-01-18T21:44:55.237Z,12.23
2019-01-18T21:47:52.103Z,11.70
2019-01-18T21:50:48.732Z,13.70
2019-01-18T21:53:48.714Z,11.60
2019-01-18T21:56:58.271Z,11.30
2019-01-18T22:00:03.074Z,13.07
2019-01-18T22:03:06.641Z,15.70
2019-01-18T22:05:58.560Z,12.90
2019-01-18T22:08:55.885Z,11.03
2019-01-18T22:11:59.324Z,8.80
2019-01-18T22:15:02.508Z,10.90
2019-01-18T22:17:44.556Z,14.80
2019-01-18T22:20:34.094Z,12.67
2019-01-18T22:23:22.174Z,14.30
2019-01-18T22:26:37.831Z,10.93
2019-01-18T22:29:49.500Z,10.87
2019-01-18T22:33:00.575Z,10.20
2019-01-18T22:35:47.395Z,9.97
2019-01-18T22:38:32.204Z,11.20
2019-01-18T22:41:39.083Z,11.80
2019-01-18T22:44:27.142Z,16.53
2019-01-18T22:47:13.865Z,11.63
2019-01-18T22:50:24.596Z,24.53
2019-01-18T22:53:33.647Z,24.97
2019-01-18T22:56:33.149Z,22.47
2019-01-18T22:59:50.066Z,18.93
2019-01-18T23:02:45.843Z,12.77
2019-01-18T23:05:49.155Z,13.63
2019-01-18T23:08:33.492Z,13.30
2019-01-18T23:11:24.120Z,15.27
2019-01-18T23:14:18.217Z,16.67
2019-01-18T23:17:20.640Z,13.93
2019-01-18T23:20:41.865Z,14.07
2019-01-18T23:23:28.362Z,12.03
2019-01-18T23:26:20.592Z,11.37
2019-01-18T23:29:16.163Z,11.47
2019-01-18T23:32:31.989Z,11.47
2019-01-18T23:35:32.646Z,10.30
2019-01-18T23:38:49.732Z,11.60
2019-01-18T23:41:45.773Z,10.57
2019-01-18T23:44:53.576Z,12.50
2019-01-18T23:47:49.145Z,12.53
2019-01-18T23:50:37.465Z,10.73
2019-01-18T23:53:50.781Z,11.10
2019-01-18T23:56:37.447Z,10.67
2019-01-18T23:59:23.320Z,10.90
